Time;durP1;ratioP1;P1;durP2;ratioP2;P2;SDS_P1;SDS_P2;PMS_P1;PMS_P2;Temp;Humidity;BMP_temperature;BMP_pressure;BME280_temperature;BME280_humidity;BME280_pressure;Samples;Min_cycle;Max_cycle;Signal;HPM_P1;HPM_P2
2022/07/21 00:01:13;;;;;;;;;;;;;;;20.67;47.59;100815.66;5113508;27;19926;-79
2022/07/21 00:03:40;;;;;;;;;;;;;;;20.56;48.01;100808.22;5130734;27;19960;-78
2022/07/21 00:06:05;;;;;;;;;;;;;;;20.57;48.47;100801.69;5112799;27;20347;-78
2022/07/21 00:08:32;;;;;;;;;;;;;;;20.60;48.63;100795.78;5132810;27;19911;-79
2022/07/21 00:10:57;;;;;;;;;;;;;;;20.57;48.86;100794.31;5112351;27;20414;-80
2022/07/21 00:13:22;;;;;;;;;;;;;;;20.58;48.89;100796.00;5104816;28;19920;-80
2022/07/21 00:15:48;;;;;;;;;;;;;;;20.53;49.15;100787.59;5105548;27;20373;-80
2022/07/21 00:18:13;;;;;;;;;;;;;;;20.51;49.03;100777.97;5112709;27;19911;-79
2022/07/21 00:20:39;;;;;;;;;;;;;;;20.35;49.22;100782.94;5113073;27;19911;-78
2022/07/21 00:23:05;;;;;;;;;;;;;;;20.19;49.02;100778.03;5132205;27;19979;-80
2022/07/21 00:25:31;;;;;;;;;;;;;;;20.20;48.94;100776.97;5131576;27;20095;-80
2022/07/21 00:27:56;;;;;;;;;;;;;;;20.16;48.46;100770.28;5113647;27;20340;-80
2022/07/21 00:30:24;;;;;;;;;;;;;;;20.16;48.22;100771.13;5131089;27;20393;-80
2022/07/21 00:32:49;;;;;;;;;;;;;;;20.16;47.91;100768.38;5096130;27;19968;-80
2022/07/21 00:35:15;;;;;;;;;;;;;;;20.11;47.74;100765.50;5110549;27;19915;-79
2022/07/21 00:37:42;;;;;;;;;;;;;;;20.18;47.59;100757.22;5096416;27;19924;-79
2022/07/21 00:40:09;;;;;;;;;;;;;;;20.20;47.17;100757.84;5112739;27;19919;-79
2022/07/21 00:42:34;;;;;;;;;;;;;;;20.24;46.38;100759.91;5131863;27;19911;-79
2022/07/21 00:45:00;;;;;;;;;;;;;;;20.22;46.58;100759.28;5113119;27;19923;-79
2022/07/21 00:47:26;;;;;;;;;;;;;;;20.31;46.08;100757.13;5132568;27;20014;-80
2022/07/21 00:49:51;;;;;;;;;;;;;;;20.33;45.34;100755.03;5130648;27;19965;-79
2022/07/21 00:52:16;;;;;;;;;;;;;;;20.43;45.13;100755.34;5127633;27;19923;-79
2022/07/21 00:54:45;;;;;;;;;;;;;;;20.43;45.06;100752.59;5112883;27;20320;-80
2022/07/21 00:57:11;;;;;;;;;;;;;;;20.49;44.78;100753.63;5131800;27;19911;-79
2022/07/21 00:59:37;;;;;;;;;;;;;;;20.50;44.63;100749.81;5117579;27;20010;-80
2022/07/21 01:02:02;;;;;;;;;;;;;;;20.57;44.26;100741.59;5113103;27;20411;-78
2022/07/21 01:04:28;;;;;;;;;;;;;;;20.61;44.14;100740.94;5102213;27;19922;-78
2022/07/21 01:06:53;;;;;;;;;;;;;;;20.60;44.38;100738.41;5123809;27;19919;-78
2022/07/21 01:09:22;;;;;;;;;;;;;;;20.70;43.81;100741.47;5129349;27;19928;-79
2022/07/21 01:11:49;;;;;;;;;;;;;;;20.71;43.92;100728.66;5102640;28;19920;-79
2022/07/21 01:14:18;;;;;;;;;;;;;;;20.72;44.04;100719.38;5092226;27;19919;-79
2022/07/21 01:16:43;;;;;;;;;;;;;;;20.77;43.99;100735.94;5130196;27;19953;-80
2022/07/21 01:19:10;;;;;;;;;;;;;;;20.75;44.04;100736.16;5109698;27;19931;-80
2022/07/21 01:21:37;;;;;;;;;;;;;;;20.75;44.19;100733.44;5123655;27;20002;-81
2022/07/21 01:24:03;;;;;;;;;;;;;;;20.72;44.44;100728.44;5125642;28;19939;-78
2022/07/21 01:26:29;;;;;;;;;;;;;;;20.75;44.13;100727.97;5119494;27;20347;-78
2022/07/21 01:28:54;;;;;;;;;;;;;;;20.73;44.30;100721.06;5117189;28;20407;-79
2022/07/21 01:31:20;;;;;;;;;;;;;;;20.65;44.36;100723.03;5106496;28;20010;-79
2022/07/21 01:33:45;;;;;;;;;;;;;;;20.60;44.38;100724.75;5126318;28;19915;-79
2022/07/21 01:36:10;;;;;;;;;;;;;;;20.54;44.53;100721.00;5126106;28;19911;-79
2022/07/21 01:41:30;;;;;;;;;;;;;;;20.45;44.97;100715.00;5108254;28;20401;-79
2022/07/21 01:44:17;;;;;;;;;;;;;;;20.49;44.75;100717.31;5109297;28;20067;-79
2022/07/21 01:46:46;;;;;;;;;;;;;;;20.43;44.85;100721.75;5127466;28;19919;-79
2022/07/21 01:49:13;;;;;;;;;;;;;;;20.44;44.89;100705.16;5095654;28;19911;-79
2022/07/21 01:51:39;;;;;;;;;;;;;;;20.38;45.05;100706.03;5126490;28;19974;-79
2022/07/21 01:54:06;;;;;;;;;;;;;;;20.38;45.04;100702.47;5124595;28;20362;-78
2022/07/21 01:56:32;;;;;;;;;;;;;;;20.30;45.25;100702.75;5119952;28;20435;-78
2022/07/21 01:58:57;;;;;;;;;;;;;;;20.35;45.23;100703.75;5106192;28;19920;-78
2022/07/21 02:01:24;;;;;;;;;;;;;;;20.34;45.11;100713.00;5126125;28;20006;-79
2022/07/21 02:03:50;;;;;;;;;;;;;;;20.29;45.15;100704.66;5110125;28;19916;-78
2022/07/21 02:06:16;;;;;;;;;;;;;;;20.31;45.36;100701.72;5126487;28;19920;-79
2022/07/21 02:08:42;;;;;;;;;;;;;;;20.32;45.23;100700.63;5104094;28;19919;-79
2022/07/21 02:11:10;;;;;;;;;;;;;;;20.30;44.98;100695.41;5086036;28;19912;-79
2022/07/21 02:13:35;;;;;;;;;;;;;;;20.19;45.10;100694.25;5094884;28;19958;-79
2022/07/21 02:16:02;;;;;;;;;;;;;;;20.24;45.17;100696.31;5094381;28;19963;-80
2022/07/21 02:18:29;;;;;;;;;;;;;;;20.20;45.14;100698.63;5112117;28;20477;-79
2022/07/21 02:20:54;;;;;;;;;;;;;;;20.20;45.36;100689.59;5094228;28;19919;-80
2022/07/21 02:23:20;;;;;;;;;;;;;;;20.18;45.40;100700.78;5104230;28;20337;-80
2022/07/21 02:25:45;;;;;;;;;;;;;;;20.19;45.31;100693.41;5111338;28;19922;-80
2022/07/21 02:28:11;;;;;;;;;;;;;;;20.30;45.21;100689.09;5130644;28;19918;-79
2022/07/21 02:30:36;;;;;;;;;;;;;;;20.25;44.96;100689.78;5127734;28;19912;-79
2022/07/21 02:33:01;;;;;;;;;;;;;;;20.33;45.26;100681.31;5104515;28;19975;-79
2022/07/21 02:35:27;;;;;;;;;;;;;;;20.28;44.84;100675.69;5089648;28;19955;-79
2022/07/21 02:37:54;;;;;;;;;;;;;;;20.25;45.17;100670.66;5113473;27;19918;-80
2022/07/21 02:40:19;;;;;;;;;;;;;;;20.27;45.06;100678.63;5133403;27;20386;-80
2022/07/21 02:42:46;;;;;;;;;;;;;;;20.29;45.06;100674.63;5135002;27;19911;-80
2022/07/21 02:45:13;;;;;;;;;;;;;;;20.28;45.07;100670.22;5114941;27;20324;-79
2022/07/21 02:47:51;;;;;;;;;;;;;;;20.26;45.14;100674.25;5115350;27;19922;-79
2022/07/21 02:50:17;;;;;;;;;;;;;;;20.19;45.43;100674.31;5133723;27;19960;-78
2022/07/21 02:52:42;;;;;;;;;;;;;;;20.01;45.96;100669.63;5115691;27;19915;-78
2022/07/21 02:55:08;;;;;;;;;;;;;;;20.08;45.83;100680.50;5114330;27;19923;-79
2022/07/21 02:57:33;;;;;;;;;;;;;;;20.09;45.77;100660.31;5115733;27;19976;-79
2022/07/21 03:00:00;;;;;;;;;;;;;;;19.94;46.05;100666.13;5132201;27;19919;-79
2022/07/21 03:02:27;;;;;;;;;;;;;;;19.97;46.07;100673.84;5104484;27;19961;-78
2022/07/21 03:04:53;;;;;;;;;;;;;;;19.99;46.44;100672.59;5110751;28;19916;-82
2022/07/21 03:07:18;;;;;;;;;;;;;;;19.93;46.27;100668.03;5128944;27;19914;-79
2022/07/21 03:09:45;;;;;;;;;;;;;;;19.80;46.59;100668.13;5114257;27;19911;-79
2022/07/21 03:12:12;;;;;;;;;;;;;;;19.82;46.68;100663.28;5134264;27;20002;-78
2022/07/21 03:14:37;;;;;;;;;;;;;;;19.81;46.91;100669.81;5112171;27;19923;-78
2022/07/21 03:17:03;;;;;;;;;;;;;;;19.94;46.61;100680.59;5130005;27;20064;-78
2022/07/21 03:19:28;;;;;;;;;;;;;;;19.93;46.61;100689.03;5133141;27;19919;-78
2022/07/21 03:21:54;;;;;;;;;;;;;;;19.89;46.89;100699.53;5132420;27;19919;-78
2022/07/21 03:24:19;;;;;;;;;;;;;;;19.80;47.23;100689.94;5097530;27;20397;-79
2022/07/21 03:26:44;;;;;;;;;;;;;;;19.73;47.71;100691.88;5094504;27;19911;-80
2022/07/21 03:29:10;;;;;;;;;;;;;;;19.75;47.70;100698.78;5133140;27;19920;-79
2022/07/21 03:31:35;;;;;;;;;;;;;;;19.66;48.09;100694.63;5132181;27;19916;-80
2022/07/21 03:34:01;;;;;;;;;;;;;;;19.51;48.66;100699.56;5114394;27;20006;-79
2022/07/21 03:36:28;;;;;;;;;;;;;;;19.49;48.70;100698.94;5097390;27;19968;-79
2022/07/21 03:38:54;;;;;;;;;;;;;;;19.56;48.26;100691.53;5129912;27;19911;-79
2022/07/21 03:41:20;;;;;;;;;;;;;;;19.67;48.16;100692.75;5132658;27;19922;-79
2022/07/21 03:43:45;;;;;;;;;;;;;;;19.71;48.15;100693.97;5115290;27;19911;-79
2022/07/21 03:46:13;;;;;;;;;;;;;;;19.75;48.18;100692.50;5131784;27;19972;-79
2022/07/21 03:48:39;;;;;;;;;;;;;;;19.75;48.16;100692.50;5132943;27;19961;-80
2022/07/21 03:51:04;;;;;;;;;;;;;;;19.80;48.31;100687.22;5105217;27;19963;-79
2022/07/21 03:53:29;;;;;;;;;;;;;;;19.79;48.45;100683.66;5114499;27;19911;-78
2022/07/21 03:55:57;;;;;;;;;;;;;;;19.72;48.43;100682.03;5109419;28;19916;-79
2022/07/21 03:58:27;;;;;;;;;;;;;;;19.82;48.33;100683.19;5118910;27;19915;-78
2022/07/21 04:00:54;;;;;;;;;;;;;;;19.91;48.03;100686.50;5132745;27;20367;-79
2022/07/21 04:03:19;;;;;;;;;;;;;;;19.92;48.17;100692.78;5133191;27;19911;-78
2022/07/21 04:05:44;;;;;;;;;;;;;;;20.01;47.94;100680.53;5132038;27;19927;-78
2022/07/21 04:08:10;;;;;;;;;;;;;;;19.94;48.14;100690.69;5111127;27;20006;-80
2022/07/21 04:10:37;;;;;;;;;;;;;;;20.02;48.22;100683.06;5096696;27;19915;-81
2022/07/21 04:13:05;;;;;;;;;;;;;;;20.09;48.06;100684.88;5112392;27;20374;-79
2022/07/21 04:15:31;;;;;;;;;;;;;;;20.13;48.44;100686.09;5131048;27;19923;-79
2022/07/21 04:17:56;;;;;;;;;;;;;;;20.19;48.47;100682.50;5114277;27;20285;-78
2022/07/21 04:20:25;;;;;;;;;;;;;;;20.20;49.12;100684.16;5085835;28;20364;-79
2022/07/21 04:22:53;;;;;;;;;;;;;;;20.32;49.14;100687.84;5106704;27;19915;-79
2022/07/21 04:25:19;;;;;;;;;;;;;;;20.44;49.30;100686.03;5111923;27;19911;-78
2022/07/21 04:27:45;;;;;;;;;;;;;;;20.51;49.33;100685.09;5132138;27;20067;-80
2022/07/21 04:30:11;;;;;;;;;;;;;;;20.60;49.59;100689.25;5095510;27;20534;-81
2022/07/21 04:32:38;;;;;;;;;;;;;;;20.77;49.91;100689.50;5113623;27;19916;-80
2022/07/21 04:35:05;;;;;;;;;;;;;;;20.84;49.88;100684.81;5095941;27;19911;-79
2022/07/21 04:37:31;;;;;;;;;;;;;;;21.16;49.52;100688.16;5113308;27;20014;-79
2022/07/21 04:39:58;;;;;;;;;;;;;;;21.43;49.12;100674.19;5126508;27;20034;-79
2022/07/21 04:42:23;;;;;;;;;;;;;;;21.76;48.56;100681.06;5120238;27;19915;-79
2022/07/21 04:44:49;;;;;;;;;;;;;;;22.03;48.16;100687.78;5109206;27;19950;-77
2022/07/21 04:47:15;;;;;;;;;;;;;;;22.18;47.65;100683.72;5108256;27;20459;-80
2022/07/21 04:49:43;;;;;;;;;;;;;;;22.57;46.76;100681.34;5107811;27;19920;-77
2022/07/21 04:52:10;;;;;;;;;;;;;;;22.77;46.06;100676.31;5102665;27;21099;-77
2022/07/21 04:54:36;;;;;;;;;;;;;;;23.05;45.54;100680.22;5116584;27;19928;-78
2022/07/21 04:57:02;;;;;;;;;;;;;;;23.44;42.69;100683.19;5119853;27;19915;-77
2022/07/21 04:59:29;;;;;;;;;;;;;;;23.98;40.50;100675.38;5109177;27;19919;-78
2022/07/21 05:01:54;;;;;;;;;;;;;;;24.48;38.81;100673.69;5108642;27;19919;-76
2022/07/21 05:04:20;;;;;;;;;;;;;;;24.96;37.67;100677.59;5122819;27;19916;-76
2022/07/21 05:06:46;;;;;;;;;;;;;;;25.39;36.88;100671.28;5132409;27;19937;-79
2022/07/21 05:09:13;;;;;;;;;;;;;;;25.73;36.55;100687.59;5121466;27;19993;-77
2022/07/21 05:11:38;;;;;;;;;;;;;;;25.97;35.56;100682.59;5132060;27;19919;-78
2022/07/21 05:14:05;;;;;;;;;;;;;;;26.24;34.90;100674.22;5128121;27;20397;-79
2022/07/21 05:16:30;;;;;;;;;;;;;;;26.48;35.25;100673.81;5110396;28;19916;-79
2022/07/21 05:18:55;;;;;;;;;;;;;;;26.75;34.29;100673.75;5129789;27;19918;-78
2022/07/21 05:21:21;;;;;;;;;;;;;;;26.90;33.77;100686.75;5128440;27;19965;-79
2022/07/21 05:23:46;;;;;;;;;;;;;;;27.05;33.94;100684.06;5125306;28;19915;-77
2022/07/21 05:26:12;;;;;;;;;;;;;;;27.16;33.75;100688.53;5126188;28;19977;-80
2022/07/21 05:28:37;;;;;;;;;;;;;;;27.34;33.14;100691.91;5103344;28;19912;-80
2022/07/21 05:31:04;;;;;;;;;;;;;;;27.56;33.37;100688.94;5120556;28;20295;-78
2022/07/21 05:33:29;;;;;;;;;;;;;;;27.75;33.16;100694.75;5110364;28;19915;-77
2022/07/21 05:35:54;;;;;;;;;;;;;;;27.94;33.13;100690.38;5129924;28;19919;-79
2022/07/21 05:38:20;;;;;;;;;;;;;;;27.91;32.25;100695.59;5124618;28;19923;-79
2022/07/21 05:40:45;;;;;;;;;;;;;;;28.12;32.46;100694.53;5123913;28;19918;-78
2022/07/21 05:43:13;;;;;;;;;;;;;;;28.31;32.04;100722.41;5112684;28;20355;-79
2022/07/21 05:45:38;;;;;;;;;;;;;;;28.33;32.13;100706.38;5110170;28;19919;-78
2022/07/21 05:48:04;;;;;;;;;;;;;;;28.38;31.86;100714.66;5110819;28;19972;-78
2022/07/21 05:50:29;;;;;;;;;;;;;;;28.64;31.99;100717.41;5110348;28;20348;-79
2022/07/21 05:52:55;;;;;;;;;;;;;;;28.84;31.34;100722.03;5129468;28;20355;-80
2022/07/21 05:55:20;;;;;;;;;;;;;;;28.85;31.57;100726.50;5108758;28;20317;-79
2022/07/21 05:57:45;;;;;;;;;;;;;;;29.14;30.85;100717.53;5111248;28;19912;-78
2022/07/21 06:00:11;;;;;;;;;;;;;;;29.40;30.52;100729.31;5129191;28;19920;-79
2022/07/21 06:02:37;;;;;;;;;;;;;;;29.60;30.05;100725.63;5092019;28;19920;-79
2022/07/21 06:05:02;;;;;;;;;;;;;;;29.75;30.04;100719.16;5122232;28;19915;-78
2022/07/21 06:07:27;;;;;;;;;;;;;;;29.87;29.87;100725.16;5107780;28;19938;-79
2022/07/21 06:09:53;;;;;;;;;;;;;;;29.91;29.28;100719.88;5111861;28;19922;-79
2022/07/21 06:12:18;;;;;;;;;;;;;;;30.06;29.29;100716.97;5131982;27;19912;-77
2022/07/21 06:14:43;;;;;;;;;;;;;;;30.21;29.02;100718.81;5134316;27;19916;-77
2022/07/21 06:17:09;;;;;;;;;;;;;;;30.31;28.69;100715.94;5116309;27;19919;-78
2022/07/21 06:19:34;;;;;;;;;;;;;;;30.67;28.61;100712.78;5134339;27;20006;-78
2022/07/21 06:22:00;;;;;;;;;;;;;;;30.78;28.22;100717.13;5133929;27;19911;-79
2022/07/21 06:24:26;;;;;;;;;;;;;;;30.80;27.95;100708.50;5115425;27;20407;-77
2022/07/21 06:26:52;;;;;;;;;;;;;;;30.85;28.11;100711.25;5134684;27;20299;-80
2022/07/21 06:29:17;;;;;;;;;;;;;;;30.98;28.05;100712.50;5115377;27;20375;-79
2022/07/21 06:31:43;;;;;;;;;;;;;;;30.97;28.10;100716.38;5115803;27;19911;-79
2022/07/21 06:34:08;;;;;;;;;;;;;;;31.20;27.54;100717.47;5115528;27;19911;-79
2022/07/21 06:36:33;;;;;;;;;;;;;;;31.22;27.63;100721.59;5129996;27;19964;-78
2022/07/21 06:38:59;;;;;;;;;;;;;;;31.33;27.40;100716.75;5114956;27;19960;-79
2022/07/21 06:41:24;;;;;;;;;;;;;;;31.38;27.55;100716.69;5133453;27;19932;-78
2022/07/21 06:43:50;;;;;;;;;;;;;;;31.55;27.41;100718.97;5116390;27;19922;-81
2022/07/21 06:46:15;;;;;;;;;;;;;;;31.63;27.52;100721.06;5114544;27;19928;-79
2022/07/21 06:48:41;;;;;;;;;;;;;;;31.78;27.05;100713.63;5125759;27;19930;-79
2022/07/21 06:51:06;;;;;;;;;;;;;;;31.78;26.97;100708.88;5094335;27;19911;-79
2022/07/21 06:53:31;;;;;;;;;;;;;;;32.03;26.82;100707.69;5119187;27;20317;-78
2022/07/21 06:55:57;;;;;;;;;;;;;;;32.17;26.88;100714.09;5133049;27;20109;-78
2022/07/21 06:58:22;;;;;;;;;;;;;;;32.30;26.58;100720.00;5091716;27;19923;-80
2022/07/21 07:00:48;;;;;;;;;;;;;;;32.31;26.43;100707.72;5107971;27;19915;-82
2022/07/21 07:03:14;;;;;;;;;;;;;;;32.34;26.71;100715.47;5110949;27;20010;-77
2022/07/21 07:05:40;;;;;;;;;;;;;;;32.38;26.46;100713.72;5096271;27;19986;-79
2022/07/21 07:08:06;;;;;;;;;;;;;;;32.30;26.42;100686.63;5133080;27;20335;-77
2022/07/21 07:10:32;;;;;;;;;;;;;;;32.37;25.79;100712.91;5113142;27;20319;-77
2022/07/21 07:12:58;;;;;;;;;;;;;;;32.48;25.74;100713.53;5114508;27;20014;-78
2022/07/21 07:15:25;;;;;;;;;;;;;;;32.57;25.91;100705.34;5111031;27;20002;-78
2022/07/21 07:17:50;;;;;;;;;;;;;;;32.76;25.83;100713.59;5103056;27;20286;-78
2022/07/21 07:20:16;;;;;;;;;;;;;;;33.07;25.44;100707.44;5132393;27;19916;-78
2022/07/21 07:22:43;;;;;;;;;;;;;;;33.34;24.87;100698.19;5114056;27;19922;-78
2022/07/21 07:25:12;;;;;;;;;;;;;;;33.30;24.21;100700.78;5131009;27;19919;-78
2022/07/21 07:27:37;;;;;;;;;;;;;;;33.24;24.28;100701.22;5114855;27;19954;-79
2022/07/21 07:30:03;;;;;;;;;;;;;;;33.28;24.18;100697.47;5133064;27;19955;-77
2022/07/21 07:32:28;;;;;;;;;;;;;;;33.42;23.96;100689.91;5114830;27;20006;-79
2022/07/21 07:34:53;;;;;;;;;;;;;;;33.50;23.69;100699.47;5114794;27;19920;-77
2022/07/21 07:37:19;;;;;;;;;;;;;;;33.59;23.87;100707.94;5114948;27;19915;-76
2022/07/21 07:39:44;;;;;;;;;;;;;;;33.74;23.53;100695.59;5114264;27;19995;-78
2022/07/21 07:42:09;;;;;;;;;;;;;;;33.97;23.53;100693.63;5111886;27;20379;-81
2022/07/21 07:44:35;;;;;;;;;;;;;;;34.08;23.04;100708.16;5124384;27;19927;-78
2022/07/21 07:47:03;;;;;;;;;;;;;;;34.27;22.90;100689.25;5107781;27;19919;-78
2022/07/21 07:49:29;;;;;;;;;;;;;;;34.21;23.16;100708.13;5111503;27;20403;-76
2022/07/21 07:51:54;;;;;;;;;;;;;;;34.39;22.92;100702.63;5129175;27;19916;-78
2022/07/21 07:54:20;;;;;;;;;;;;;;;34.46;22.70;100702.97;5126312;27;19925;-76
2022/07/21 07:56:46;;;;;;;;;;;;;;;34.57;23.15;100718.31;5109412;27;20359;-76
2022/07/21 07:59:12;;;;;;;;;;;;;;;34.69;23.12;100712.13;5127690;27;19931;-76
2022/07/21 08:01:46;;;;;;;;;;;;;;;35.06;22.88;100704.38;5109722;27;20303;-77
2022/07/21 08:04:14;;;;;;;;;;;;;;;35.20;22.70;100710.69;5108386;27;19920;-76
2022/07/21 08:06:40;;;;;;;;;;;;;;;35.57;22.44;100710.41;5099045;27;20402;-78
2022/07/21 08:09:05;;;;;;;;;;;;;;;35.86;21.44;100721.75;5122903;27;20010;-76
2022/07/21 08:11:31;;;;;;;;;;;;;;;35.97;21.25;100704.63;5121774;27;19915;-75
2022/07/21 08:13:57;;;;;;;;;;;;;;;36.20;21.40;100702.47;5104030;28;20367;-77
2022/07/21 08:16:22;;;;;;;;;;;;;;;36.32;20.83;100727.81;5082165;28;19919;-78
2022/07/21 08:18:48;;;;;;;;;;;;;;;36.22;20.78;100717.78;5099916;28;19916;-79
2022/07/21 08:21:14;;;;;;;;;;;;;;;36.33;20.99;100719.06;5107110;28;19928;-77
2022/07/21 08:23:42;;;;;;;;;;;;;;;36.37;20.62;100713.63;5100505;28;19919;-77
2022/07/21 08:26:09;;;;;;;;;;;;;;;36.45;20.40;100731.53;5104937;28;20395;-79
2022/07/21 08:28:35;;;;;;;;;;;;;;;36.58;20.50;100722.13;5084032;28;19926;-75
2022/07/21 08:31:00;;;;;;;;;;;;;;;36.85;20.60;100734.03;5088713;28;19920;-76
2022/07/21 08:33:25;;;;;;;;;;;;;;;36.66;19.75;100732.47;5110666;28;20010;-78
2022/07/21 08:35:51;;;;;;;;;;;;;;;36.70;20.14;100733.44;5106090;28;19916;-77
2022/07/21 08:38:18;;;;;;;;;;;;;;;36.96;19.69;100738.09;5105897;28;19916;-79
2022/07/21 08:40:45;;;;;;;;;;;;;;;37.35;19.21;100752.91;5090867;28;19928;-80
2022/07/21 08:43:13;;;;;;;;;;;;;;;36.98;19.95;100739.41;5102357;28;19916;-78
2022/07/21 08:45:40;;;;;;;;;;;;;;;37.15;19.46;100746.09;5104146;28;20299;-78
2022/07/21 08:48:06;;;;;;;;;;;;;;;37.36;19.17;100751.75;5101930;28;19962;-79
2022/07/21 08:50:33;;;;;;;;;;;;;;;37.20;19.65;100742.28;5102216;28;20371;-80
2022/07/21 08:53:00;;;;;;;;;;;;;;;37.36;19.53;100743.34;5100146;28;20329;-80
2022/07/21 08:55:29;;;;;;;;;;;;;;;37.69;18.99;100753.84;5083549;28;19943;-80
2022/07/21 08:57:55;;;;;;;;;;;;;;;38.04;18.74;100753.56;5098869;28;19919;-79
2022/07/21 09:00:20;;;;;;;;;;;;;;;38.36;18.53;100752.72;5105496;28;19916;-77
2022/07/21 09:02:52;;;;;;;;;;;;;;;38.87;18.14;100740.41;5101655;28;19916;-77
2022/07/21 09:05:17;;;;;;;;;;;;;;;38.92;18.20;100741.03;5106798;28;19920;-77
2022/07/21 09:07:46;;;;;;;;;;;;;;;38.68;18.29;100736.19;5104442;28;20397;-77
2022/07/21 09:10:11;;;;;;;;;;;;;;;37.72;18.90;100737.16;5101222;28;19927;-78
2022/07/21 09:12:47;;;;;;;;;;;;;;;37.55;19.44;100738.09;5101761;28;20022;-78
2022/07/21 09:15:13;;;;;;;;;;;;;;;37.06;19.61;100748.94;5123982;27;19926;-78
2022/07/21 09:17:39;;;;;;;;;;;;;;;36.86;20.31;100735.69;5106750;27;20014;-78
2022/07/21 09:20:04;;;;;;;;;;;;;;;37.09;20.15;100745.50;5122769;27;19915;-79
2022/07/21 09:22:30;;;;;;;;;;;;;;;36.70;20.29;100739.06;5109046;28;20432;-79
2022/07/21 09:25:00;;;;;;;;;;;;;;;36.14;20.82;100744.63;5112208;28;19921;-82
2022/07/21 09:27:25;;;;;;;;;;;;;;;35.53;21.85;100745.75;5096248;28;20301;-78
2022/07/21 09:29:51;;;;;;;;;;;;;;;35.69;21.82;100732.94;5105642;28;19922;-81
2022/07/21 09:32:24;;;;;;;;;;;;;;;36.25;21.46;100744.28;5121947;28;20472;-80
2022/07/21 09:34:50;;;;;;;;;;;;;;;35.34;23.37;100735.69;5129556;28;19915;-78
2022/07/21 09:37:16;;;;;;;;;;;;;;;35.36;24.93;100755.75;5113260;28;19911;-78
2022/07/21 09:40:14;;;;;;;;;;;;;;;35.91;23.95;100743.13;5110861;28;19992;-78
2022/07/21 09:42:40;;;;;;;;;;;;;;;35.43;25.43;100750.50;5122444;28;20020;-80
2022/07/21 09:45:14;;;;;;;;;;;;;;;35.77;25.50;100750.88;5127623;28;19919;-78
2022/07/21 09:47:39;;;;;;;;;;;;;;;35.08;26.49;100744.00;5111406;27;19968;-80
2022/07/21 09:50:07;;;;;;;;;;;;;;;34.71;27.22;100745.34;5116646;27;19911;-78
2022/07/21 09:52:55;;;;;;;;;;;;;;;34.46;28.05;100742.03;5135658;27;19917;-78
2022/07/21 09:55:23;;;;;;;;;;;;;;;34.98;28.65;100745.13;5115940;27;19915;-77
2022/07/21 09:57:48;;;;;;;;;;;;;;;34.37;31.23;100744.81;5106974;27;19919;-76
2022/07/21 10:00:15;;;;;;;;;;;;;;;32.73;36.09;100765.16;5112781;27;19919;-76
2022/07/21 10:02:42;;;;;;;;;;;;;;;32.26;37.24;100767.06;5115130;27;19911;-79
2022/07/21 10:05:11;;;;;;;;;;;;;;;32.21;38.51;100771.88;5116713;27;20290;-77
2022/07/21 10:07:37;;;;;;;;;;;;;;;33.58;35.80;100776.81;5116511;27;19923;-77
2022/07/21 10:10:03;;;;;;;;;;;;;;;34.91;32.86;100769.91;5127329;27;19927;-78
2022/07/21 10:12:28;;;;;;;;;;;;;;;33.60;35.90;100777.31;5109971;27;19920;-78
2022/07/21 10:14:54;;;;;;;;;;;;;;;33.01;36.72;100785.47;5131641;27;20002;-78
2022/07/21 10:17:22;;;;;;;;;;;;;;;35.04;32.41;100774.53;5135191;27;19911;-77
2022/07/21 10:20:00;;;;;;;;;;;;;;;36.71;29.52;100767.88;5134678;27;19911;-76
2022/07/21 10:22:30;;;;;;;;;;;;;;;37.49;29.01;100780.69;5128586;27;19948;-77
2022/07/21 10:24:58;;;;;;;;;;;;;;;38.15;27.66;100772.44;5134180;27;19923;-77
2022/07/21 10:27:23;;;;;;;;;;;;;;;37.59;27.61;100772.72;5107858;27;19918;-76
2022/07/21 10:29:55;;;;;;;;;;;;;;;35.65;30.73;100769.13;5090689;27;19932;-76
2022/07/21 10:32:23;;;;;;;;;;;;;;;37.36;28.29;100782.56;5129009;27;19911;-77
2022/07/21 10:34:48;;;;;;;;;;;;;;;38.51;27.00;100775.72;5131625;27;19927;-76
2022/07/21 10:37:40;;;;;;;;;;;;;;;38.60;27.13;100768.00;5134717;27;19912;-76
2022/07/21 10:40:08;;;;;;;;;;;;;;;39.23;26.19;100762.09;5128544;27;20363;-77
2022/07/21 10:42:34;;;;;;;;;;;;;;;38.70;26.38;100775.97;5134434;27;19915;-77
2022/07/21 10:44:59;;;;;;;;;;;;;;;39.39;24.65;100776.28;5115480;27;19976;-79
2022/07/21 10:47:30;;;;;;;;;;;;;;;39.30;24.75;100784.81;5092412;28;19983;-77
2022/07/21 10:49:56;;;;;;;;;;;;;;;38.48;25.58;100768.00;5107560;27;19911;-74
2022/07/21 10:52:34;;;;;;;;;;;;;;;37.15;27.16;100766.53;5102480;28;20325;-80
2022/07/21 10:55:28;;;;;;;;;;;;;;;36.04;28.27;100774.91;5098321;27;19912;-76
2022/07/21 10:58:12;;;;;;;;;;;;;;;34.70;29.47;100769.63;5111496;28;19947;-77
2022/07/21 11:00:38;;;;;;;;;;;;;;;33.38;32.44;100780.00;5099248;27;19918;-78
2022/07/21 11:03:16;;;;;;;;;;;;;;;33.15;33.05;100770.75;5131416;27;19927;-78
2022/07/21 11:06:00;;;;;;;;;;;;;;;33.98;31.48;100778.97;5116439;27;19954;-78
2022/07/21 11:08:33;;;;;;;;;;;;;;;33.33;32.73;100775.38;5132821;27;20414;-78
2022/07/21 11:11:09;;;;;;;;;;;;;;;33.84;32.22;100782.63;5123687;27;19915;-79
2022/07/21 11:13:53;;;;;;;;;;;;;;;33.64;32.47;100785.88;5133413;27;19940;-79
2022/07/21 11:16:20;;;;;;;;;;;;;;;33.97;32.18;100780.09;5096590;27;19916;-78
2022/07/21 11:18:46;;;;;;;;;;;;;;;34.15;32.13;100781.09;5134183;27;19911;-76
2022/07/21 11:21:12;;;;;;;;;;;;;;;32.82;33.92;100789.47;5115845;27;19980;-80
2022/07/21 11:23:41;;;;;;;;;;;;;;;32.15;35.05;100790.63;5095071;27;19915;-77
2022/07/21 11:26:08;;;;;;;;;;;;;;;31.69;35.62;100791.28;5104569;27;19938;-78
2022/07/21 11:28:34;;;;;;;;;;;;;;;31.79;35.42;100801.41;5087364;28;19916;-77
2022/07/21 11:31:12;;;;;;;;;;;;;;;30.90;37.44;100794.44;5120020;27;19916;-77
2022/07/21 11:33:39;;;;;;;;;;;;;;;30.38;38.19;100791.31;5133279;27;20386;-81
2022/07/21 11:36:06;;;;;;;;;;;;;;;30.01;39.35;100794.63;5110681;27;20022;-79
2022/07/21 11:38:33;;;;;;;;;;;;;;;29.72;40.47;100800.09;5108719;27;19915;-80
2022/07/21 11:41:17;;;;;;;;;;;;;;;29.64;41.08;100807.84;5111124;27;19934;-81
2022/07/21 11:43:46;;;;;;;;;;;;;;;29.48;41.64;100805.41;5129057;27;19972;-79
2022/07/21 11:46:29;;;;;;;;;;;;;;;29.22;42.68;100802.75;5106321;27;19920;-78
2022/07/21 11:49:05;;;;;;;;;;;;;;;29.15;42.74;100810.53;5114256;27;19926;-78
2022/07/21 11:51:31;;;;;;;;;;;;;;;29.02;42.75;100806.41;5110292;27;20399;-79
2022/07/21 11:53:56;;;;;;;;;;;;;;;28.92;42.56;100811.97;5103157;27;19923;-77
2022/07/21 11:56:21;;;;;;;;;;;;;;;28.83;42.92;100807.00;5108355;27;19911;-79
2022/07/21 11:58:47;;;;;;;;;;;;;;;28.86;43.29;100813.09;5093306;28;20030;-77
2022/07/21 12:01:14;;;;;;;;;;;;;;;28.78;43.79;100818.06;5088029;27;19960;-78
2022/07/21 12:03:51;;;;;;;;;;;;;;;29.28;42.96;100822.97;5131787;27;19922;-77
2022/07/21 12:06:17;;;;;;;;;;;;;;;29.30;43.07;100815.22;5123711;27;20367;-80
2022/07/21 12:08:43;;;;;;;;;;;;;;;29.31;42.11;100812.13;5126110;27;19927;-80
2022/07/21 12:11:12;;;;;;;;;;;;;;;29.43;42.28;100804.34;5105572;27;19967;-79
2022/07/21 12:13:57;;;;;;;;;;;;;;;29.52;42.05;100812.88;5105412;27;19919;-79
2022/07/21 12:16:22;;;;;;;;;;;;;;;29.75;40.73;100816.13;5113559;27;19916;-80
2022/07/21 12:18:49;;;;;;;;;;;;;;;29.59;42.10;100818.13;5091154;28;19942;-80
2022/07/21 12:21:17;;;;;;;;;;;;;;;29.83;41.90;100812.78;5103015;27;19998;-79
2022/07/21 12:23:43;;;;;;;;;;;;;;;30.27;41.01;100815.53;5129891;27;20021;-79
2022/07/21 12:26:08;;;;;;;;;;;;;;;30.39;40.09;100819.88;5104712;27;20006;-78
2022/07/21 12:28:43;;;;;;;;;;;;;;;29.80;41.29;100813.31;5110174;28;19980;-77
2022/07/21 12:31:10;;;;;;;;;;;;;;;29.78;41.94;100810.88;5121398;27;20458;-78
2022/07/21 12:33:36;;;;;;;;;;;;;;;29.22;43.90;100817.44;5129973;27;19912;-79
2022/07/21 12:36:03;;;;;;;;;;;;;;;29.74;42.97;100820.03;5108462;27;19915;-79
2022/07/21 12:38:55;;;;;;;;;;;;;;;29.81;42.35;100815.00;5113414;27;19920;-79